Terminal Aerodrome Forecast
Issued by NWS Mt. Holly, NJ

Home | Current Version | Previous Version | Text Only | Print | Product List | Glossary On
Versions: 1 2 3 4 5 6 7 8 9 10 11 12 13 14 15 16
000
FTUS41 KPHI 200500
TAFILG
TAF
KILG 200533Z 2006/2106 10008KT P6SM SCT025 BKN035
      TEMPO 2006/2010 BKN025
     FM201100 14004KT P6SM OVC015
     FM201400 16007KT P6SM OVC025
     FM201700 16011KT P6SM BKN035
     FM210100 13005KT P6SM OVC020
     FM210500 VRB03KT P6SM OVC012=

USA.gov is the U.S. government's official web portal to all federal, state and local government web resources and services.